CW7575 Weather Reports


Display with metric or nautical units.
time (UTC)temp
F
wind
direction
speed
MPH
gust
MPH
rain 1hr
in
rain 24hr
in
rain mn
in
humidity
%
barometer
mb
20190122045605 3 285 4.0 11.0 0.00 0.00 0.00 65 1021.2
20190122045323 -10 102 0.0 0.0 0.00 0.00 0.00 60 1018.0
20190122045204 3 284 4.0 11.0 0.00 0.00 0.00 65 1021.1
20190122045004 3 286 4.0 11.0 0.00 0.00 0.00 64 1021.0
20190122044604 3 285 4.0 11.0 0.00 0.00 0.00 65 1021.0
20190122044404 3 290 4.0 11.0 0.00 0.00 0.00 65 1021.0
20190122044330 -9 170 0.0 0.0 0.00 0.00 0.00 59 1017.7
20190122044204 3 294 4.0 11.0 0.00 0.00 0.00 66 1021.0
20190122044004 3 287 4.0 11.0 0.00 0.00 0.00 65 1020.9
20190122043804 3 291 4.0 11.0 0.00 0.00 0.00 65 1020.8
20190122043604 3 290 4.0 13.0 0.00 0.00 0.00 66 1020.8
20190122043404 3 282 4.0 13.0 0.00 0.00 0.00 65 1020.7
20190122043318 -9 260 0.0 0.0 0.00 0.00 0.00 60 1017.5
20190122043007 3 287 4.0 13.0 0.00 0.00 0.00 65 1020.6
20190122042804 3 283 3.0 13.0 0.00 0.00 0.00 66 1020.6
20190122042328 -9 17 0.0 2.0 0.00 0.00 0.00 59 1017.6
20190122042204 2 288 2.0 8.0 0.00 0.00 0.00 67 1020.4
20190122042004 2 285 2.0 7.0 0.00 0.00 0.00 67 1020.3
20190122041804 2 286 3.0 7.0 0.00 0.00 0.00 66 1020.3
20190122041604 3 292 3.0 10.0 0.00 0.00 0.00 67 1020.3
20190122041322 -9 197 0.0 1.0 0.00 0.00 0.00 59 1017.3
20190122040603 2 300 3.0 9.0 0.00 0.00 0.00 66 1020.2
20190122040403 2 306 3.0 7.0 0.00 0.00 0.00 66 1020.2
20190122040322 -8 0 0.0 3.0 0.00 0.00 0.00 58 1016.9
20190122040204 2 309 3.0 7.0 0.00 0.00 0.00 66 1020.1
20190122035804 2 305 3.0 7.0 0.00 0.00 0.00 66 1020.0
20190122035604 2 298 3.0 7.0 0.00 0.00 0.00 66 1020.0
20190122035404 2 299 3.0 7.0 0.00 0.00 0.00 67 1019.9
20190122035323 -8 246 0.0 2.0 0.00 0.00 0.00 59 1016.6
20190122035004 2 299 3.0 9.0 0.00 0.00 0.00 66 1020.0
20190122034804 2 301 3.0 9.0 0.00 0.00 0.00 66 1020.0
20190122034604 2 300 4.0 9.0 0.00 0.00 0.00 66 1019.9
20190122034320 -7 229 0.0 4.0 0.00 0.00 0.00 58 1016.5
20190122034005 3 287 4.0 16.0 0.00 0.00 0.00 67 1019.7
20190122033804 2 284 4.0 16.0 0.00 0.00 0.00 67 1019.7
20190122033604 2 282 4.0 16.0 0.00 0.00 0.00 67 1019.8
20190122033404 2 279 3.0 16.0 0.00 0.00 0.00 67 1019.7
20190122033320 -7 259 0.0 5.0 0.00 0.00 0.00 57 1016.3
20190122033204 2 283 3.0 10.0 0.00 0.00 0.00 68 1019.6
20190122033004 2 287 3.0 7.0 0.00 0.00 0.00 67 1019.6
20190122032604 2 282 3.0 7.0 0.00 0.00 0.00 67 1019.6
20190122032327 -6 268 0.0 2.0 0.00 0.00 0.00 57 1016.0
20190122032004 2 292 3.0 7.0 0.00 0.00 0.00 68 1019.5
20190122031327 -6 267 0.0 6.0 0.00 0.00 0.00 57 1015.6
20190122031004 3 277 3.0 9.0 0.00 0.00 0.00 67 1019.4
20190122030804 2 275 3.0 9.0 0.00 0.00 0.00 68 1019.3
20190122030328 -6 257 0.0 7.0 0.00 0.00 0.00 57 1015.5
20190122030004 3 283 3.0 7.0 0.00 0.00 0.00 68 1019.1
20190122025604 3 288 3.0 9.0 0.00 0.00 0.00 68 1018.9
20190122025404 3 284 4.0 10.0 0.00 0.00 0.00 67 1018.8
20190122025328 -6 273 0.0 7.0 0.00 0.00 0.00 58 1015.3
20190122025004 3 293 5.0 10.0 0.00 0.00 0.00 66 1018.7
20190122024804 3 293 5.0 10.0 0.00 0.00 0.00 66 1018.6
20190122024404 3 302 5.0 10.0 0.00 0.00 0.00 66 1018.6
20190122024333 -5 218 0.0 9.0 0.00 0.00 0.00 58 1015.1
20190122024004 3 298 5.0 11.0 0.00 0.00 0.00 66 1018.4
20190122023604 3 301 4.0 11.0 0.00 0.00 0.00 66 1018.4
20190122023333 -5 283 0.0 5.0 0.00 0.00 0.00 59 1014.8
20190122023004 3 298 4.0 9.0 0.00 0.00 0.00 67 1018.2
20190122022804 3 298 4.0 9.0 0.00 0.00 0.00 67 1018.1
20190122022604 3 290 4.0 10.0 0.00 0.00 0.00 67 1018.1
20190122022404 3 292 5.0 10.0 0.00 0.00 0.00 67 1018.0
20190122022334 -5 229 0.0 7.0 0.00 0.00 0.00 60 1014.6
20190122022004 3 295 4.0 10.0 0.00 0.00 0.00 67 1018.0
20190122021604 3 306 3.0 10.0 0.00 0.00 0.00 67 1017.9
20190122021403 3 310 3.0 10.0 0.00 0.00 0.00 67 1017.9
20190122021335 -5 233 1.0 16.0 0.00 0.00 0.00 60 1014.3
20190122021204 3 306 3.0 8.0 0.00 0.00 0.00 67 1017.8
20190122020604 3 301 3.0 10.0 0.00 0.00 0.00 68 1017.7
20190122020404 3 304 3.0 10.0 0.00 0.00 0.00 68 1017.7
20190122020336 -5 294 0.0 4.0 0.00 0.00 0.00 62 1014.2
20190122020203 3 308 3.0 10.0 0.00 0.00 0.00 68 1017.7
20190122020004 3 319 3.0 10.0 0.00 0.00 0.00 68 1017.6
20190122015336 -5 243 2.0 7.0 0.00 0.00 0.00 62 1013.9
20190122015204 3 318 3.0 9.0 0.00 0.00 0.00 68 1017.5
20190122015003 3 308 3.0 9.0 0.00 0.00 0.00 68 1017.5
20190122014803 3 315 4.0 9.0 0.00 0.00 0.00 68 1017.5
20190122014604 3 309 4.0 13.0 0.00 0.00 0.00 68 1017.6
20190122014404 3 299 4.0 13.0 0.00 0.00 0.00 68 1017.4
20190122014337 -5 164 0.0 4.0 0.00 0.00 0.00 62 1013.7
20190122014203 3 304 4.0 13.0 0.00 0.00 0.00 68 1017.4
20190122014004 3 304 4.0 13.0 0.00 0.00 0.00 68 1017.3
20190122013803 3 307 3.0 13.0 0.00 0.00 0.00 68 1017.4
20190122013603 3 307 3.0 9.0 0.00 0.00 0.00 69 1017.3
20190122013404 3 319 3.0 9.0 0.00 0.00 0.00 69 1017.2
20190122013319 -5 202 0.0 6.0 0.00 0.00 0.00 62 1013.5
20190122013203 3 317 3.0 9.0 0.00 0.00 0.00 69 1017.2
20190122013004 3 321 3.0 9.0 0.00 0.00 0.00 68 1017.2
20190122012803 3 313 3.0 8.0 0.00 0.00 0.00 69 1017.1
20190122012324 -5 257 1.0 6.0 0.00 0.00 0.00 62 1013.2
20190122012203 3 311 3.0 10.0 0.00 0.00 0.00 69 1017.0
20190122012004 3 318 4.0 10.0 0.00 0.00 0.00 68 1016.9
20190122011604 3 314 4.0 11.0 0.00 0.00 0.00 69 1016.9
20190122011323 -6 199 1.0 7.0 0.00 0.00 0.00 62 1013.0
20190122011204 3 317 4.0 11.0 0.00 0.00 0.00 68 1016.7
20190122011004 3 312 4.0 11.0 0.00 0.00 0.00 69 1016.7
20190122010604 3 308 4.0 12.0 0.00 0.00 0.00 70 1016.6
20190122010324 -6 243 0.0 5.0 0.00 0.00 0.00 62 1012.9
20190122010204 3 306 4.0 12.0 0.00 0.00 0.00 69 1016.6
20190122010004 3 299 4.0 12.0 0.00 0.00 0.00 69 1016.5
20190122005604 3 300 4.0 10.0 0.00 0.00 0.00 69 1016.4
20190122005404 3 297 4.0 11.0 0.00 0.00 0.00 69 1016.4
20190122005326 -6 216 0.0 6.0 0.00 0.00 0.00 62 1012.8
20190122005203 3 306 4.0 13.0 0.00 0.00 0.00 69 1016.4
20190122004804 3 299 4.0 13.0 0.00 0.00 0.00 69 1016.3
20190122004327 -6 233 1.0 7.0 0.00 0.00 0.00 61 1012.6
20190122004005 3 291 4.0 10.0 0.00 0.00 0.00 70 1016.0
20190122003804 3 293 5.0 12.0 0.00 0.00 0.00 70 1016.0
20190122003604 3 302 5.0 12.0 0.00 0.00 0.00 69 1016.0
20190122003404 3 304 5.0 12.0 0.00 0.00 0.00 69 1016.0
20190122003331 -6 274 0.0 5.0 0.00 0.00 0.00 61 1012.3
20190122002603 3 294 5.0 13.0 0.00 0.00 0.00 68 1015.9
20190122002404 3 291 5.0 14.0 0.00 0.00 0.00 68 1015.9
20190122002331 -6 291 0.0 3.0 0.00 0.00 0.00 61 1012.1
20190122002203 3 286 6.0 14.0 0.00 0.00 0.00 68 1015.9
20190122001004 3 286 5.0 12.0 0.00 0.00 0.00 69 1015.5
20190122000804 3 302 4.0 12.0 0.00 0.00 0.00 69 1015.4
20190122000603 3 290 5.0 12.0 0.00 0.00 0.00 70 1015.3
20190122000403 3 286 5.0 12.0 0.00 0.00 0.00 69 1015.3
20190122000339 -7 199 0.0 3.0 0.00 0.00 0.00 61 1011.9
20190122000204 3 290 5.0 12.0 0.00 0.00 0.00 70 1015.2
20190122000005 3 294 5.0 12.0 0.00 0.00 0.00 69 1015.2
20190121235803 3 292 5.0 12.0 0.00 0.00 0.00 69 1015.1
20190121235604 3 298 4.0 11.0 0.00 0.00 0.00 70 1015.2
20190121235403 3 302 5.0 10.0 0.00 0.00 0.00 69 1015.1
20190121235322 -7 209 0.0 6.0 0.00 0.00 0.00 61 1011.6
20190121235204 3 308 5.0 13.0 0.00 0.00 0.00 69 1015.0
20190121235003 3 311 4.0 13.0 0.00 0.00 0.00 69 1015.0
20190121234804 3 311 4.0 13.0 0.00 0.00 0.00 69 1015.1
20190121234323 -7 238 0.0 3.0 0.00 0.00 0.00 61 1011.5
20190121234204 3 296 5.0 14.0 0.00 0.00 0.00 70 1014.9
20190121234003 3 295 5.0 14.0 0.00 0.00 0.00 69 1014.7
20190121233604 3 295 5.0 14.0 0.00 0.00 0.00 69 1014.6
20190121233324 -7 230 0.0 6.0 0.00 0.00 0.00 60 1011.3
20190121233204 3 281 5.0 13.0 0.00 0.00 0.00 69 1014.5
20190121233004 3 289 5.0 13.0 0.00 0.00 0.00 69 1014.5
20190121232804 3 294 5.0 15.0 0.00 0.00 0.00 69 1014.4
20190121232603 3 298 5.0 15.0 0.00 0.00 0.00 69 1014.3
20190121232404 3 306 5.0 15.0 0.00 0.00 0.00 68 1014.2
20190121232321 -7 204 0.0 2.0 0.00 0.00 0.00 60 1011.3
20190121232003 3 310 5.0 15.0 0.00 0.00 0.00 69 1014.2
20190121231325 -7 254 0.0 5.0 0.00 0.00 0.00 60 1011.1
20190121230804 3 302 6.0 15.0 0.00 0.00 0.00 70 1014.0
20190121230604 3 297 5.0 12.0 0.00 0.00 0.00 70 1014.0
20190121230403 3 294 5.0 12.0 0.00 0.00 0.00 69 1013.8
20190121230325 -8 175 0.0 4.0 0.00 0.00 0.00 60 1010.9
20190121230204 3 298 5.0 14.0 0.00 0.00 0.00 69 1013.9
20190121230005 3 293 5.0 14.0 0.00 0.00 0.00 69 1013.7
20190121225804 3 295 5.0 14.0 0.00 0.00 0.00 70 1013.7
20190121225604 3 298 5.0 14.0 0.00 0.00 0.00 69 1013.7
20190121225404 3 305 4.0 14.0 0.00 0.00 0.00 69 1013.7
20190121225326 -8 265 0.0 3.0 0.00 0.00 0.00 59 1010.7
20190121225204 3 295 4.0 12.0 0.00 0.00 0.00 69 1013.7
20190121224804 3 293 5.0 12.0 0.00 0.00 0.00 69 1013.5
20190121224604 3 286 5.0 13.0 0.00 0.00 0.00 69 1013.6
20190121224325 -8 280 0.0 4.0 0.00 0.00 0.00 59 1010.3
20190121223804 3 293 5.0 13.0 0.00 0.00 0.00 69 1013.3
20190121223604 3 307 5.0 12.0 0.00 0.00 0.00 69 1013.3
20190121223325 -8 214 0.0 4.0 0.00 0.00 0.00 59 1010.1
20190121223204 3 304 4.0 11.0 0.00 0.00 0.00 69 1013.3
20190121223004 3 295 4.0 12.0 0.00 0.00 0.00 69 1013.2
20190121222603 3 295 5.0 12.0 0.00 0.00 0.00 69 1013.0
20190121222404 3 300 5.0 12.0 0.00 0.00 0.00 69 1013.0
20190121222328 -8 279 1.0 5.0 0.00 0.00 0.00 59 1010.0
20190121222203 3 301 5.0 12.0 0.00 0.00 0.00 69 1012.9
20190121222005 3 298 5.0 11.0 0.00 0.00 0.00 69 1013.0
20190121221804 3 296 5.0 12.0 0.00 0.00 0.00 68 1013.0
20190121221603 2 287 5.0 12.0 0.00 0.00 0.00 68 1012.9
20190121221404 2 287 6.0 12.0 0.00 0.00 0.00 69 1012.9
20190121221328 -8 252 1.0 4.0 0.00 0.00 0.00 58 1009.7
20190121221203 2 294 6.0 12.0 0.00 0.00 0.00 68 1012.8
20190121220604 2 309 6.0 13.0 0.00 0.00 0.00 68 1012.6
20190121220404 2 312 5.0 13.0 0.00 0.00 0.00 68 1012.7
20190121220327 -8 278 0.0 6.0 0.00 0.00 0.00 58 1009.5
20190121220204 2 308 5.0 13.0 0.00 0.00 0.00 69 1012.6
20190121220004 2 314 5.0 13.0 0.00 0.00 0.00 68 1012.6
20190121215404 2 310 4.0 11.0 0.00 0.00 0.00 70 1012.6
20190121215328 -8 279 1.0 4.0 0.00 0.00 0.00 58 1009.3
20190121215004 2 295 5.0 12.0 0.00 0.00 0.00 69 1012.3
20190121214331 -8 250 1.0 5.0 0.00 0.00 0.00 57 1009.1
20190121214004 2 287 6.0 15.0 0.00 0.00 0.00 68 1012.2
20190121213804 2 284 6.0 15.0 0.00 0.00 0.00 68 1012.1
20190121213604 2 286 6.0 15.0 0.00 0.00 0.00 69 1012.1
20190121213404 2 285 6.0 15.0 0.00 0.00 0.00 69 1012.0
20190121213331 -8 249 1.0 10.0 0.00 0.00 0.00 57 1008.9
20190121212804 2 293 6.0 15.0 0.00 0.00 0.00 69 1012.0
20190121212604 2 296 5.0 12.0 0.00 0.00 0.00 69 1012.0
20190121212333 -8 254 1.0 8.0 0.00 0.00 0.00 56 1008.7
20190121212004 2 299 4.0 12.0 0.00 0.00 0.00 69 1011.9
20190121211804 2 298 4.0 14.0 0.00 0.00 0.00 70 1011.8
20190121211604 2 292 5.0 15.0 0.00 0.00 0.00 70 1011.8
20190121211333 -8 263 1.0 7.0 0.00 0.00 0.00 56 1008.6
20190121211204 2 286 6.0 15.0 0.00 0.00 0.00 69 1011.8
20190121211005 2 289 6.0 16.0 0.00 0.00 0.00 68 1011.8
20190121210604 2 295 6.0 16.0 0.00 0.00 0.00 68 1011.6
20190121210404 2 300 7.0 18.0 0.00 0.00 0.00 68 1011.6
20190121210337 -7 264 0.0 6.0 0.00 0.00 0.00 55 1008.5
20190121210005 2 303 6.0 18.0 0.00 0.00 0.00 69 1011.6
20190121205604 2 303 7.0 18.0 0.00 0.00 0.00 68 1011.5
20190121205404 2 301 6.0 17.0 0.00 0.00 0.00 68 1011.5
20190121205336 -7 241 0.0 4.0 0.00 0.00 0.00 55 1008.4
20190121205004 2 296 6.0 14.0 0.00 0.00 0.00 68 1011.5
20190121204604 2 293 6.0 15.0 0.00 0.00 0.00 69 1011.5
20190121204335 -7 216 1.0 4.0 0.00 0.00 0.00 54 1008.1
20190121204004 2 296 6.0 15.0 0.00 0.00 0.00 68 1011.4
20190121203605 2 293 6.0 13.0 0.00 0.00 0.00 69 1011.3
20190121203337 -7 275 1.0 7.0 0.00 0.00 0.00 54 1008.1
20190121203004 2 293 6.0 13.0 0.00 0.00 0.00 69 1011.2
20190121202804 2 286 7.0 19.0 0.00 0.00 0.00 69 1011.1
20190121202604 2 291 7.0 19.0 0.00 0.00 0.00 69 1011.2
20190121202322 -7 271 0.0 9.0 0.00 0.00 0.00 53 1007.8
20190121201604 2 293 5.0 17.0 0.00 0.00 0.00 71 1011.1
20190121201404 2 300 5.0 13.0 0.00 0.00 0.00 72 1011.0
20190121201323 -7 258 0.0 8.0 0.00 0.00 0.00 53 1007.6
20190121201004 2 292 6.0 15.0 0.00 0.00 0.00 71 1010.9
20190121200804 2 303 6.0 15.0 0.00 0.00 0.00 71 1010.8
20190121200604 2 302 6.0 15.0 0.00 0.00 0.00 71 1010.7
20190121200325 -6 186 3.0 10.0 0.00 0.00 0.00 52 1007.5
20190121200204 2 293 7.0 16.0 0.00 0.00 0.00 71 1010.5
20190121195604 2 290 7.0 16.0 0.00 0.00 0.00 71 1010.5
20190121195404 2 294 6.0 15.0 0.00 0.00 0.00 71 1010.6
20190121195325 -5 263 0.0 4.0 0.00 0.00 0.00 53 1007.3
20190121194804 2 292 4.0 11.0 0.00 0.00 0.00 73 1010.3
20190121194604 2 300 4.0 10.0 0.00 0.00 0.00 73 1010.2
20190121194324 -6 261 0.0 7.0 0.00 0.00 0.00 54 1007.1
20190121194204 2 298 5.0 17.0 0.00 0.00 0.00 73 1010.2
20190121194004 2 298 5.0 17.0 0.00 0.00 0.00 74 1010.1
20190121193804 2 307 6.0 17.0 0.00 0.00 0.00 74 1010.1
20190121193404 2 288 7.0 13.0 0.00 0.00 0.00 73 1010.1
20190121193327 -5 243 0.0 6.0 0.00 0.00 0.00 54 1006.8
20190121192604 2 273 8.0 13.0 0.00 0.01 0.00 72 1009.9
20190121192327 -5 259 1.0 5.0 0.00 0.00 0.00 53 1006.7
20190121192204 2 281 8.0 15.0 0.00 0.01 0.00 72 1009.9
20190121191803 2 279 7.0 16.0 0.00 0.01 0.00 71 1009.9
20190121191328 -5 256 1.0 6.0 0.00 0.00 0.00 52 1006.5
20190121191204 2 280 7.0 17.0 0.00 0.01 0.00 72 1009.9
20190121191003 2 276 7.0 17.0 0.00 0.01 0.00 73 1009.7
20190121190804 2 275 6.0 17.0 0.00 0.01 0.00 72 1009.8
20190121190404 2 278 5.0 14.0 0.00 0.01 0.00 74 1009.6
20190121190329 -5 260 0.0 4.0 0.00 0.00 0.00 52 1006.3
20190121190204 2 273 6.0 14.0 0.00 0.01 0.00 73 1009.5
20190121190006 2 276 6.0 14.0 0.00 0.01 0.00 74 1009.5
20190121185805 2 273 6.0 14.0 0.00 0.01 0.00 74 1009.5
20190121185404 1 270 7.0 14.0 0.00 0.01 0.00 72 1009.4
20190121185330 -4 224 0.0 6.0 0.00 0.00 0.00 51 1006.1
20190121185204 1 270 7.0 20.0 0.00 0.01 0.00 73 1009.4
20190121184604 1 292 7.0 20.0 0.00 0.02 0.00 73 1009.4
20190121184330 -4 240 0.0 5.0 0.00 0.00 0.00 50 1005.9
20190121184004 1 305 7.0 13.0 0.00 0.03 0.00 73 1009.3
20190121183805 1 295 7.0 13.0 0.00 0.03 0.00 72 1009.4
20190121183605 1 288 7.0 15.0 0.00 0.03 0.00 73 1009.4
20190121183330 -4 294 0.0 7.0 0.00 0.00 0.00 50 1005.8
20190121183204 1 274 6.0 15.0 0.00 0.04 0.00 73 1009.4
20190121182804 1 283 6.0 15.0 0.00 0.04 0.00 72 1009.2
20190121182603 2 285 6.0 12.0 0.00 0.04 0.00 73 1009.2
20190121182404 1 284 6.0 14.0 0.00 0.04 0.00 73 1009.2
20190121182333 -4 277 0.0 10.0 0.00 0.00 0.00 49 1005.7
20190121182204 1 282 7.0 16.0 0.00 0.05 0.00 73 1009.2
20190121181804 1 271 7.0 17.0 0.00 0.06 0.00 72 1009.2
20190121181604 1 272 7.0 17.0 0.00 0.06 0.00 71 1009.2
20190121181338 -3 268 2.0 7.0 0.00 0.00 0.00 49 1005.7
20190121181204 1 275 7.0 17.0 0.00 0.07 0.00 71 1009.1
20190121181004 1 275 7.0 13.0 0.00 0.07 0.00 72 1009.1
20190121180404 1 288 7.0 16.0 0.00 0.09 0.00 71 1009.2
20190121180339 -4 259 0.0 5.0 0.00 0.00 0.00 51 1005.8
20190121180004 1 289 7.0 16.0 0.00 0.11 0.00 70 1009.1
20190121175804 1 287 7.0 16.0 0.00 0.11 0.00 70 1009.2
20190121175604 1 289 7.0 16.0 0.00 0.11 0.00 70 1009.2
20190121175339 -4 5 2.0 6.0 0.00 0.00 0.00 50 1005.7
20190121175204 1 291 6.0 15.0 0.00 0.13 0.00 69 1009.2
20190121174804 2 283 6.0 13.0 0.00 0.14 0.00 71 1009.3
20190121174603 1 273 6.0 13.0 0.00 0.15 0.00 71 1009.1
20190121174404 1 270 6.0 13.0 0.00 0.15 0.00 72 1009.1
20190121174335 -3 250 0.0 3.0 0.00 0.00 0.00 50 1005.7
20190121174203 1 265 6.0 13.0 0.00 0.15 0.00 72 1009.1
20190121174004 1 265 7.0 13.0 0.00 0.15 0.00 71 1009.2
20190121173804 1 270 6.0 13.0 0.00 0.15 0.00 71 1009.2
20190121173604 1 270 6.0 13.0 0.00 0.15 0.00 71 1009.1
20190121173404 1 270 6.0 13.0 0.00 0.15 0.00 71 1009.1
20190121173335 -4 270 0.0 4.0 0.00 0.00 0.00 50 1005.8
20190121173204 1 272 6.0 13.0 0.00 0.15 0.00 71 1009.2
20190121173005 1 275 6.0 12.0 0.00 0.15 0.00 72 1009.2
20190121172804 1 269 5.0 12.0 0.00 0.15 0.00 71 1009.2
20190121172326 -3 274 1.0 3.0 0.00 0.00 0.00 48 1005.7
20190121172005 1 266 6.0 13.0 0.00 0.16 0.00 72 1009.3
20190121171804 1 268 6.0 13.0 0.00 0.16 0.00 71 1009.3
20190121171328 -4 169 0.0 2.0 0.00 0.00 0.00 48 1005.7
20190121171204 1 292 6.0 13.0 0.00 0.17 0.00 71 1009.4
20190121170328 -4 169 0.0 4.0 0.00 0.00 0.00 48 1005.6
20190121170204 0 270 7.0 16.0 0.00 0.17 0.00 72 1009.4
20190121165604 1 282 6.0 16.0 0.00 0.18 0.00 71 1009.5
20190121165328 -3 280 0.0 4.0 0.00 0.00 0.00 48 1005.7
20190121164404 1 300 5.0 13.0 0.00 0.20 0.00 71 1009.4
20190121164334 -3 253 1.0 5.0 0.00 0.00 0.00 49 1005.8
20190121164204 1 291 5.0 13.0 0.00 0.21 0.00 71 1009.4
20190121163603 1 289 6.0 15.0 0.00 0.23 0.00 71 1009.4
20190121163335 -3 289 0.0 2.0 0.00 0.00 0.00 49 1005.8
20190121162804 1 276 6.0 15.0 0.00 0.25 0.00 72 1009.4
20190121162604 1 274 6.0 13.0 0.00 0.25 0.00 73 1009.5
20190121162404 0 276 5.0 13.0 0.00 0.26 0.00 73 1009.4
20190121162333 -4 190 0.0 4.0 0.00 0.00 0.00 48 1005.8
20190121162204 0 275 5.0 13.0 0.00 0.26 0.00 72 1009.3
20190121162005 0 270 6.0 13.0 0.00 0.27 0.00 72 1009.4
20190121161804 0 270 5.0 13.0 0.00 0.27 0.00 72 1009.4
20190121161605 0 270 5.0 12.0 0.00 0.27 0.00 73 1009.4
20190121161333 -4 184 1.0 4.0 0.00 0.00 0.00 50 1005.8
20190121161204 0 272 5.0 14.0 0.00 0.28 0.00 71 1009.4
20190121161004 0 276 5.0 14.0 0.00 0.29 0.00 72 1009.2
20190121160803 0 283 5.0 14.0 0.00 0.29 0.00 72 1009.3
20190121160338 -4 227 0.0 5.0 0.00 0.00 0.00 50 1006.1
20190121155803 0 303 5.0 13.0 0.00 0.31 0.00 71 1009.4
20190121155404 0 292 5.0 13.0 0.00 0.31 0.00 72 1009.6
20190121155338 -4 261 0.0 5.0 0.00 0.00 0.00 50 1006.0
20190121155204 0 286 6.0 13.0 0.00 0.31 0.00 71 1009.5
20190121155004 0 290 5.0 13.0 0.00 0.32 0.00 71 1009.4
20190121154804 0 289 6.0 12.0 0.00 0.32 0.00 70 1009.4
20190121154339 -5 229 1.0 7.0 0.00 0.00 0.00 50 1006.1
20190121154204 0 285 6.0 12.0 0.00 0.33 0.00 70 1009.6
20190121153804 0 279 6.0 13.0 0.00 0.34 0.00 71 1009.5
20190121153321 -5 256 1.0 5.0 0.00 0.00 0.00 49 1006.1
20190121152804 -1 270 5.0 12.0 0.00 0.36 0.00 72 1009.5
20190121152603 -1 266 5.0 12.0 0.00 0.36 0.00 71 1009.5
20190121152404 -1 272 4.0 12.0 0.00 0.37 0.00 71 1009.5
20190121152326 -5 251 0.0 3.0 0.00 0.00 0.00 50 1006.1
20190121152003 -1 297 4.0 14.0 0.00 0.37 0.00 71 1009.4
20190121151404 -1 296 5.0 16.0 0.00 0.38 0.00 70 1009.4
20190121151327 -5 254 0.0 6.0 0.00 0.00 0.00 52 1005.8
20190121151204 -1 296 6.0 16.0 0.00 0.38 0.00 68 1009.4
20190121151004 -1 293 5.0 16.0 0.00 0.38 0.00 68 1009.4
20190121150804 -1 294 5.0 16.0 0.00 0.39 0.00 69 1009.5
20190121150328 -5 267 0.0 5.0 0.00 0.00 0.00 51 1005.8
20190121150005 -1 294 6.0 13.0 0.00 0.40 0.00 70 1009.4
20190121145329 -6 228 0.0 1.0 0.00 0.00 0.00 52 1005.6
20190121145004 -2 294 6.0 16.0 0.00 0.43 0.00 68 1009.2
20190121144804 -2 297 5.0 13.0 0.00 0.43 0.00 68 1009.2
20190121144403 -2 295 6.0 19.0 0.00 0.44 0.00 69 1009.2
20190121144330 -6 180 0.0 3.0 0.00 0.00 0.00 52 1005.4
20190121144204 -2 296 6.0 19.0 0.00 0.45 0.00 69 1009.1
20190121144003 -2 287 6.0 19.0 0.00 0.45 0.00 68 1009.1
20190121143804 -2 283 7.0 19.0 0.00 0.46 0.00 68 1008.9
20190121143404 -2 276 7.0 15.0 0.00 0.47 0.00 68 1008.8
20190121143332 -7 218 0.0 3.0 0.00 0.00 0.00 53 1005.1
20190121142803 -2 280 7.0 15.0 0.00 0.49 0.00 67 1008.7
20190121142604 -2 275 7.0 15.0 0.00 0.49 0.00 67 1008.6
20190121142403 -2 283 6.0 15.0 0.00 0.50 0.00 67 1008.6
20190121142329 -7 171 0.0 1.0 0.00 0.00 0.00 54 1005.0
20190121141804 -1 280 5.0 14.0 0.00 0.51 0.00 69 1008.5
20190121141404 -1 274 6.0 13.0 0.00 0.52 0.00 69 1008.5
20190121141326 -7 185 0.0 1.0 0.00 0.00 0.00 54 1005.0
20190121140405 -2 265 6.0 15.0 0.00 0.53 0.00 68 1008.4
20190121140322 -8 229 0.0 5.0 0.00 0.00 0.00 55 1004.9
20190121140005 -1 277 5.0 15.0 0.00 0.53 0.00 69 1008.5
20190121135604 -1 272 5.0 13.0 0.00 0.53 0.00 72 1008.3
20190121135327 -8 245 0.0 2.0 0.00 0.00 0.00 55 1004.7
20190121135204 -1 281 5.0 13.0 0.00 0.54 0.00 71 1008.3
20190121135004 -1 282 5.0 12.0 0.00 0.54 0.00 71 1008.3
20190121134804 -1 287 4.0 12.0 0.00 0.54 0.00 71 1008.2
20190121134328 -8 206 1.0 3.0 0.00 0.00 0.00 55 1004.6
20190121134204 -1 301 5.0 12.0 0.00 0.55 0.00 71 1008.0
20190121133804 -2 294 4.0 13.0 0.00 0.55 0.00 71 1008.0
20190121133403 -2 296 4.0 13.0 0.00 0.56 0.00 71 1007.9
20190121133328 -8 257 0.0 2.0 0.00 0.00 0.00 56 1004.5
20190121133204 -2 293 4.0 13.0 0.00 0.56 0.00 72 1007.9
20190121133004 -2 293 4.0 14.0 0.00 0.57 0.00 72 1007.9
20190121132804 -2 291 4.0 14.0 0.00 0.57 0.00 72 1007.8
20190121132604 -2 283 5.0 14.0 0.00 0.58 0.00 71 1007.8
20190121132404 -2 278 5.0 14.0 0.00 0.58 0.00 71 1007.6
20190121132331 -8 291 0.0 2.0 0.00 0.00 0.00 57 1004.3
20190121132204 -2 272 4.0 14.0 0.00 0.58 0.00 72 1007.8
20190121132003 -2 270 4.0 12.0 0.00 0.59 0.00 72 1007.6
20190121131604 -2 271 4.0 10.0 0.00 0.59 0.00 72 1007.5
20190121131335 -9 272 0.0 5.0 0.00 0.00 0.00 56 1004.2
20190121131005 -2 283 4.0 11.0 0.00 0.60 0.00 72 1007.3
20190121130605 -2 295 4.0 14.0 0.00 0.60 0.00 72 1007.2
20190121130404 -2 302 4.0 14.0 0.00 0.60 0.00 72 1007.3
20190121130335 -9 290 0.0 0.0 0.00 0.00 0.00 57 1004.1
20190121130205 -2 311 4.0 14.0 0.00 0.61 0.00 72 1007.3
20190121125336 -9 258 0.0 1.0 0.00 0.00 0.00 57 1003.7
20190121124603 -2 269 4.0 11.0 0.00 0.63 0.00 73 1006.8
20190121124335 -9 265 0.0 4.0 0.00 0.00 0.00 58 1003.7
20190121124204 -2 277 5.0 11.0 0.00 0.64 0.00 72 1006.6
20190121124004 -2 290 5.0 12.0 0.00 0.65 0.00 72 1006.7
20190121123804 -2 295 4.0 12.0 0.00 0.65 0.00 72 1006.7
20190121123604 -2 303 4.0 12.0 0.00 0.65 0.00 72 1006.7
20190121123335 -9 289 0.0 3.0 0.00 0.00 0.00 58 1003.5
20190121123204 -2 311 4.0 12.0 0.00 0.66 0.00 73 1006.6
20190121123004 -2 306 3.0 9.0 0.00 0.67 0.00 73 1006.6
20190121122604 -2 303 3.0 8.0 0.00 0.68 0.00 73 1006.5
20190121122404 -2 306 3.0 8.0 0.00 0.69 0.00 73 1006.5
20190121122320 -9 236 0.0 2.0 0.00 0.00 0.00 58 1003.3
20190121122204 -2 299 3.0 12.0 0.00 0.69 0.00 73 1006.5
20190121121339 -9 262 0.0 1.0 0.00 0.00 0.00 58 1003.2
20190121120404 -2 317 4.0 11.0 0.00 0.75 0.00 73 1006.1
20190121120338 -8 272 0.0 2.0 0.00 0.00 0.00 58 1003.0
20190121120005 -2 310 3.0 11.0 0.00 0.77 0.00 73 1006.0
20190121115404 -2 335 3.0 10.0 0.00 0.79 0.00 74 1005.9
20190121115339 -8 269 0.0 5.0 0.00 0.00 0.00 58 1002.9
20190121115204 -2 323 4.0 9.0 0.00 0.79 0.00 74 1005.9
20190121115004 -2 322 4.0 9.0 0.00 0.80 0.00 74 1005.9
20190121114404 -2 306 3.0 9.0 0.00 0.83 0.00 73 1005.8
20190121114323 -8 276 0.0 3.0 0.00 0.00 0.00 59 1002.8
20190121114204 -2 303 3.0 7.0 0.00 0.83 0.00 74 1005.8
20190121114004 -2 299 3.0 8.0 0.00 0.84 0.00 74 1005.8
20190121113604 -2 297 4.0 8.0 0.00 0.86 0.00 73 1005.6
20190121113404 -2 288 4.0 8.0 0.00 0.86 0.00 73 1005.5
20190121113324 -8 252 0.0 1.0 0.00 0.00 0.00 60 1002.6
20190121112804 -2 287 5.0 13.0 0.00 0.87 0.00 73 1005.4
20190121112604 -2 278 5.0 13.0 0.00 0.88 0.00 72 1005.4
20190121112324 -8 227 0.0 0.0 0.00 0.00 0.00 60 1002.4
20190121111804 -2 274 4.0 14.0 0.00 0.88 0.00 73 1005.4
20190121111604 -2 278 4.0 14.0 0.00 0.89 0.00 73 1005.3
20190121111321 -8 214 0.0 3.0 0.00 0.00 0.00 61 1002.2
20190121110804 -1 279 5.0 10.0 0.00 0.90 0.00 73 1005.2
20190121110604 -1 277 4.0 10.0 0.00 0.90 0.00 73 1005.2
20190121110404 -1 274 5.0 10.0 0.00 0.91 0.00 73 1005.2
20190121110323 -7 259 0.0 1.0 0.00 0.00 0.00 61 1002.2
20190121105805 -1 288 4.0 11.0 0.00 0.92 0.00 73 1005.2
20190121105404 -1 288 5.0 13.0 0.00 0.93 0.00 74 1005.2
20190121105319 -7 202 0.0 2.0 0.00 0.00 0.00 61 1002.2
20190121104804 -1 272 5.0 14.0 0.00 0.94 0.00 73 1005.1
20190121104320 -7 246 0.0 2.0 0.00 0.00 0.00 61 1002.0
20190121103804 -1 271 4.0 13.0 0.00 0.97 0.00 74 1004.7
20190121103604 -1 271 4.0 13.0 0.00 0.97 0.00 74 1004.8
20190121103404 -1 273 3.0 13.0 0.00 0.97 0.00 75 1004.8
20190121103339 -7 246 0.0 0.0 0.00 0.00 0.00 60 1002.1
20190121103204 -1 283 3.0 8.0 0.00 0.97 0.00 74 1004.7
20190121103004 -1 285 4.0 8.0 0.00 0.98 0.00 74 1004.6
20190121102804 -1 280 4.0 17.0 0.00 0.98 0.00 74 1004.5
20190121102404 -1 273 4.0 17.0 0.00 0.99 0.00 74 1004.4
20190121102321 -7 246 0.0 1.0 0.00 0.00 0.00 60 1002.1
20190121102204 -1 267 5.0 17.0 0.00 0.99 0.00 74 1004.4
20190121101605 -1 270 5.0 12.0 0.00 0.99 0.00 74 1004.3
20190121101404 -1 268 5.0 12.0 0.00 1.00 0.00 73 1004.3
20190121101321 -7 251 0.0 0.0 0.00 0.00 0.00 60 1002.0
20190121100804 -1 276 5.0 11.0 0.00 1.01 0.00 73 1004.3
20190121100603 -1 279 4.0 11.0 0.00 1.01 0.00 74 1004.3
20190121100404 -1 282 4.0 11.0 0.00 1.01 0.00 74 1004.2
20190121100339 -7 252 0.0 0.0 0.00 0.00 0.00 59 1002.1
20190121100004 -1 271 4.0 9.0 0.00 1.02 0.00 73 1004.2
20190121095604 -1 270 4.0 12.0 0.00 1.03 0.00 73 1004.2
20190121095404 -1 276 4.0 12.0 0.00 1.03 0.00 74 1004.0
20190121095337 -7 252 0.0 1.0 0.00 0.00 0.00 59 1001.9
20190121095004 -1 284 3.0 12.0 0.00 1.03 0.00 74 1004.0
20190121094404 -1 292 5.0 14.0 0.00 1.05 0.00 73 1004.0
20190121094338 -7 281 0.0 1.0 0.00 0.00 0.00 60 1001.8
20190121094203 -1 300 6.0 14.0 0.00 1.05 0.00 73 1004.0
20190121093804 -1 287 6.0 15.0 0.00 1.05 0.00 73 1004.1
20190121093604 -1 290 6.0 15.0 0.00 1.06 0.00 73 1004.1
20190121093404 -1 284 6.0 15.0 0.00 1.06 0.00 73 1004.0
20190121093321 -7 247 0.0 1.0 0.00 0.00 0.00 60 1001.7
20190121093204 -1 273 6.0 15.0 0.00 1.06 0.00 73 1004.0
20190121093004 -1 275 6.0 15.0 0.00 1.07 0.00 74 1004.0
20190121092803 -1 278 5.0 14.0 0.00 1.07 0.00 74 1004.1
20190121092404 0 286 4.0 14.0 0.00 1.08 0.00 74 1004.0
20190121092322 -7 287 0.0 0.0 0.00 0.00 0.00 60 1001.5
20190121092203 0 292 4.0 10.0 0.00 1.08 0.00 75 1003.9
20190121092004 0 291 3.0 8.0 0.00 1.09 0.00 75 1004.0
20190121091604 0 281 4.0 10.0 0.00 1.09 0.00 75 1003.9
20190121091323 -7 298 0.0 2.0 0.00 0.00 0.00 60 1001.5
20190121091003 0 277 4.0 10.0 0.00 1.09 0.00 75 1003.8
20190121090803 0 274 4.0 10.0 0.00 1.09 0.00 75 1003.8
20190121090604 0 273 4.0 9.0 0.00 1.09 0.00 75 1003.8
20190121090341 -7 260 0.0 1.0 0.00 0.00 0.00 60 1001.4
20190121090004 0 276 4.0 12.0 0.00 1.09 0.00 74 1003.8
20190121085604 0 278 4.0 12.0 0.00 1.09 0.00 74 1003.8
20190121085325 -8 321 0.0 0.0 0.00 0.00 0.00 60 1001.3
20190121085203 0 284 4.0 8.0 0.00 1.09 0.00 75 1003.8
20190121085004 0 290 4.0 8.0 0.00 1.09 0.00 75 1003.8
20190121084327 -8 290 0.0 1.0 0.00 0.00 0.00 60 1001.2
20190121083603 1 282 5.0 12.0 0.00 1.09 0.00 74 1003.6
20190121083326 -8 265 0.0 1.0 0.00 0.00 0.00 60 1001.0
20190121083005 1 297 5.0 12.0 0.00 1.09 0.00 74 1003.4
20190121082804 1 302 5.0 12.0 0.00 1.09 0.00 74 1003.6
20190121082405 1 300 5.0 12.0 0.00 1.09 0.00 74 1003.4
20190121082326 -8 332 0.0 2.0 0.00 0.00 0.00 60 1000.9
20190121082004 1 288 5.0 12.0 0.00 1.09 0.00 74 1003.4
20190121081604 1 283 5.0 11.0 0.00 1.09 0.00 75 1003.4
20190121081404 1 284 5.0 11.0 0.00 1.09 0.00 75 1003.3
20190121081331 -8 251 0.0 4.0 0.00 0.00 0.00 60 1001.0
20190121081203 1 281 5.0 11.0 0.00 1.09 0.00 75 1003.4
20190121080804 1 286 4.0 11.0 0.00 1.09 0.00 75 1003.2
20190121080404 2 282 4.0 11.0 0.00 1.09 0.00 75 1003.2
20190121080332 -8 267 0.0 0.0 0.00 0.00 0.00 60 1001.1
20190121080204 2 279 4.0 10.0 0.00 1.09 0.00 75 1003.2
20190121080005 2 282 5.0 10.0 0.00 1.09 0.00 75 1003.1
20190121075803 2 284 5.0 12.0 0.00 1.09 0.00 75 1003.2
20190121075604 2 285 5.0 12.0 0.00 1.09 0.00 74 1003.2
20190121075404 2 287 6.0 12.0 0.00 1.09 0.00 74 1003.2
20190121075332 -8 267 0.0 0.0 0.00 0.00 0.00 61 1001.0
20190121074804 2 291 5.0 15.0 0.00 1.09 0.00 75 1003.1
20190121074604 2 295 5.0 15.0 0.00 1.09 0.00 75 1003.1
20190121074333 -8 267 0.0 0.0 0.00 0.00 0.00 61 1001.0
20190121074005 2 292 4.0 15.0 0.00 1.09 0.00 76 1003.2
20190121073803 2 284 5.0 13.0 0.00 1.09 0.00 76 1003.2
20190121073604 2 280 5.0 13.0 0.00 1.09 0.00 77 1003.2
20190121073404 2 278 5.0 13.0 0.00 1.09 0.00 76 1003.2
20190121073332 -8 267 0.0 0.0 0.00 0.00 0.00 61 1000.9
20190121073204 2 280 5.0 13.0 0.00 1.09 0.00 76 1003.2
20190121073004 2 279 5.0 13.0 0.00 1.09 0.00 76 1003.1
20190121072804 3 281 4.0 13.0 0.00 1.09 0.00 77 1003.0
20190121072603 3 286 4.0 9.0 0.00 1.09 0.00 77 1003.0
20190121072404 3 283 4.0 9.0 0.00 1.09 0.00 77 1003.0
20190121072334 -8 267 0.0 0.0 0.00 0.00 0.00 61 1000.7
20190121072204 3 286 4.0 11.0 0.00 1.09 0.00 77 1003.0
20190121071603 3 304 4.0 11.0 0.00 1.09 0.00 78 1002.9
20190121071404 3 303 4.0 11.0 0.00 1.09 0.00 78 1002.8
20190121071335 -8 267 0.0 1.0 0.00 0.00 0.00 61 1000.9
20190121071004 3 293 5.0 12.0 0.00 1.09 0.00 77 1002.6
20190121070804 3 284 5.0 13.0 0.00 1.09 0.00 77 1002.7
20190121070603 3 282 5.0 13.0 0.00 1.09 0.00 77 1002.6
20190121070333 -8 277 0.0 0.0 0.00 0.00 0.00 61 1000.6
20190121070204 3 278 5.0 13.0 0.00 1.09 0.00 77 1002.6
20190121070005 3 277 4.0 13.0 0.00 1.09 0.00 78 1002.5
20190121065604 4 281 4.0 9.0 0.00 1.09 0.00 78 1002.6
20190121065403 4 283 4.0 9.0 0.00 1.09 0.00 78 1002.6
20190121065335 -9 277 0.0 0.0 0.00 0.00 0.00 62 1000.5
20190121065003 4 284 4.0 12.0 0.00 1.09 0.00 78 1002.4
20190121064337 -9 277 0.0 1.0 0.00 0.00 0.00 62 1000.6
20190121063803 4 290 4.0 12.0 0.00 1.09 0.00 77 1001.9
20190121063337 -9 277 0.0 0.0 0.00 0.00 0.00 61 1000.4
20190121063204 4 294 4.0 9.0 0.00 1.09 0.00 76 1001.9
20190121063004 4 287 4.0 10.0 0.00 1.09 0.00 76 1001.8
20190121062804 4 290 4.0 10.0 0.00 1.09 0.00 76 1001.8
20190121062336 -9 277 0.0 0.0 0.00 0.00 0.00 61 1000.4
20190121062204 4 301 4.0 13.0 0.00 1.09 0.00 75 1001.7
20190121061804 4 300 4.0 13.0 0.00 1.09 0.00 74 1001.7
20190121061336 -9 277 0.0 0.0 0.00 0.00 0.00 62 1000.3
20190121061204 4 299 5.0 13.0 0.00 1.09 0.00 73 1001.7
20190121060403 5 293 5.0 15.0 0.00 1.09 0.00 74 1001.6
20190121060204 5 294 4.0 15.0 0.00 1.09 0.00 75 1001.6
20190121060004 5 291 5.0 15.0 0.00 1.09 0.00 74 1001.6
20190121055804 5 286 5.0 15.0 0.00 1.09 0.00 74 1001.6
20190121055338 -9 277 0.0 0.0 0.00 0.00 0.00 62 1000.1
20190121055203 5 284 6.0 17.0 0.00 1.09 0.00 74 1001.7
20190121055004 5 285 5.0 17.0 0.00 1.09 0.00 74 1001.6
20190121054804 5 285 5.0 17.0 0.00 1.09 0.00 74 1001.6
20190121054403 5 286 4.0 17.0 0.00 1.09 0.00 76 1001.4
20190121054340 -9 277 0.0 0.0 0.00 0.00 0.00 63 1000.0
20190121054204 5 283 4.0 11.0 0.00 1.09 0.00 77 1001.4
20190121053404 5 297 3.0 8.0 0.00 1.09 0.00 77 1001.2
20190121053337 -9 277 0.0 0.0 0.00 0.00 0.00 63 1000.0
20190121053204 5 303 3.0 8.0 0.00 1.09 0.00 76 1001.3
20190121053003 5 311 3.0 8.0 0.00 1.09 0.00 76 1001.2
20190121052804 5 306 3.0 8.0 0.00 1.09 0.00 76 1001.1
20190121052404 5 318 3.0 9.0 0.00 1.09 0.00 76 1000.9
20190121052323 -10 277 0.0 0.0 0.00 0.00 0.00 62 999.9
20190121052004 5 320 3.0 9.0 0.00 1.09 0.00 75 1001.0
20190121051803 5 321 3.0 9.0 0.00 1.09 0.00 75 1001.0
20190121051603 6 318 4.0 12.0 0.00 1.09 0.00 75 1001.0
20190121051404 6 312 4.0 13.0 0.00 1.09 0.00 74 1001.1
20190121051328 -10 277 0.0 0.0 0.00 0.00 0.00 62 999.6
20190121050804 6 304 6.0 13.0 0.00 1.09 0.00 73 1001.1
20190121050604 6 303 6.0 16.0 0.00 1.09 0.00 73 1001.1
20190121050404 6 297 6.0 16.0 0.00 1.09 0.00 73 1001.1
20190121050329 -11 277 0.0 0.0 0.00 0.00 0.00 62 999.5
20190121050005 6 302 5.0 16.0 0.00 1.09 0.00 73 1001.1
20190121045804 6 298 6.0 17.0 0.00 1.09 1.09 74 1001.0